sensor_id;sensor_type;location;lat;lon;timestamp;P1;durP1;ratioP1;P2;durP2;ratioP2
20159;SDS011;50187;50.492;12.134;2024-02-21T00:01:33;6.03;;;4.43;;
20159;SDS011;50187;50.492;12.134;2024-02-21T00:04:18;6.57;;;4.47;;
20159;SDS011;50187;50.492;12.134;2024-02-21T00:07:03;5.47;;;4.50;;
20159;SDS011;50187;50.492;12.134;2024-02-21T00:09:48;5.63;;;4.23;;
20159;SDS011;50187;50.492;12.134;2024-02-21T00:12:34;5.70;;;3.90;;
20159;SDS011;50187;50.492;12.134;2024-02-21T00:15:20;8.80;;;4.80;;
20159;SDS011;50187;50.492;12.134;2024-02-21T00:18:06;5.00;;;3.77;;
20159;SDS011;50187;50.492;12.134;2024-02-21T00:20:52;4.30;;;3.60;;
20159;SDS011;50187;50.492;12.134;2024-02-21T00:23:37;7.23;;;4.23;;
20159;SDS011;50187;50.492;12.134;2024-02-21T00:26:22;5.97;;;4.00;;
20159;SDS011;50187;50.492;12.134;2024-02-21T00:29:08;4.23;;;3.60;;
20159;SDS011;50187;50.492;12.134;2024-02-21T00:31:53;5.67;;;3.90;;
20159;SDS011;50187;50.492;12.134;2024-02-21T00:34:39;4.97;;;4.10;;
20159;SDS011;50187;50.492;12.134;2024-02-21T00:37:24;5.87;;;3.83;;
20159;SDS011;50187;50.492;12.134;2024-02-21T00:40:09;4.40;;;3.57;;
20159;SDS011;50187;50.492;12.134;2024-02-21T00:42:55;3.67;;;3.33;;
20159;SDS011;50187;50.492;12.134;2024-02-21T00:45:41;5.43;;;3.60;;
20159;SDS011;50187;50.492;12.134;2024-02-21T00:48:26;5.03;;;3.77;;
20159;SDS011;50187;50.492;12.134;2024-02-21T00:51:12;5.57;;;4.00;;
20159;SDS011;50187;50.492;12.134;2024-02-21T00:53:58;6.17;;;3.93;;
20159;SDS011;50187;50.492;12.134;2024-02-21T00:56:43;4.80;;;3.93;;
20159;SDS011;50187;50.492;12.134;2024-02-21T00:59:28;5.33;;;3.50;;
20159;SDS011;50187;50.492;12.134;2024-02-21T01:02:13;4.73;;;3.10;;
20159;SDS011;50187;50.492;12.134;2024-02-21T01:04:59;4.20;;;3.37;;
20159;SDS011;50187;50.492;12.134;2024-02-21T01:07:44;4.83;;;3.03;;
20159;SDS011;50187;50.492;12.134;2024-02-21T01:10:29;3.83;;;3.00;;
20159;SDS011;50187;50.492;12.134;2024-02-21T01:13:15;3.07;;;2.77;;
20159;SDS011;50187;50.492;12.134;2024-02-21T01:16:00;3.80;;;3.40;;
20159;SDS011;50187;50.492;12.134;2024-02-21T01:18:45;3.67;;;2.87;;
20159;SDS011;50187;50.492;12.134;2024-02-21T01:21:31;6.00;;;3.57;;
20159;SDS011;50187;50.492;12.134;2024-02-21T01:24:16;4.03;;;3.57;;
20159;SDS011;50187;50.492;12.134;2024-02-21T01:27:01;3.83;;;2.63;;
20159;SDS011;50187;50.492;12.134;2024-02-21T01:29:46;5.37;;;3.83;;
20159;SDS011;50187;50.492;12.134;2024-02-21T01:32:34;4.10;;;2.80;;
20159;SDS011;50187;50.492;12.134;2024-02-21T01:35:19;4.40;;;2.90;;
20159;SDS011;50187;50.492;12.134;2024-02-21T01:38:05;3.63;;;3.27;;
20159;SDS011;50187;50.492;12.134;2024-02-21T01:40:50;3.97;;;3.43;;
20159;SDS011;50187;50.492;12.134;2024-02-21T01:43:35;2.70;;;2.50;;
20159;SDS011;50187;50.492;12.134;2024-02-21T01:46:20;4.40;;;3.53;;
20159;SDS011;50187;50.492;12.134;2024-02-21T01:49:06;5.90;;;3.50;;
20159;SDS011;50187;50.492;12.134;2024-02-21T01:51:52;3.60;;;3.00;;
20159;SDS011;50187;50.492;12.134;2024-02-21T01:54:38;3.20;;;2.87;;
20159;SDS011;50187;50.492;12.134;2024-02-21T01:57:24;4.40;;;3.23;;
20159;SDS011;50187;50.492;12.134;2024-02-21T02:00:10;4.80;;;3.40;;
20159;SDS011;50187;50.492;12.134;2024-02-21T02:02:58;3.07;;;2.73;;
20159;SDS011;50187;50.492;12.134;2024-02-21T02:05:47;3.23;;;2.70;;
20159;SDS011;50187;50.492;12.134;2024-02-21T02:08:33;4.00;;;2.50;;
20159;SDS011;50187;50.492;12.134;2024-02-21T02:11:19;3.67;;;2.70;;
20159;SDS011;50187;50.492;12.134;2024-02-21T02:14:04;3.90;;;2.97;;
20159;SDS011;50187;50.492;12.134;2024-02-21T02:16:50;3.63;;;2.60;;
20159;SDS011;50187;50.492;12.134;2024-02-21T02:19:35;3.23;;;2.60;;
20159;SDS011;50187;50.492;12.134;2024-02-21T02:22:22;3.77;;;2.47;;
20159;SDS011;50187;50.492;12.134;2024-02-21T02:25:12;2.43;;;2.23;;
20159;SDS011;50187;50.492;12.134;2024-02-21T02:27:58;3.60;;;2.50;;
20159;SDS011;50187;50.492;12.134;2024-02-21T02:30:44;3.83;;;2.33;;
20159;SDS011;50187;50.492;12.134;2024-02-21T02:33:29;3.73;;;2.60;;
20159;SDS011;50187;50.492;12.134;2024-02-21T02:36:14;3.10;;;2.80;;
20159;SDS011;50187;50.492;12.134;2024-02-21T02:39:00;3.13;;;2.50;;
20159;SDS011;50187;50.492;12.134;2024-02-21T02:41:45;2.90;;;2.37;;
20159;SDS011;50187;50.492;12.134;2024-02-21T02:44:30;2.23;;;2.03;;
20159;SDS011;50187;50.492;12.134;2024-02-21T02:47:15;3.57;;;2.50;;
20159;SDS011;50187;50.492;12.134;2024-02-21T02:50:00;2.97;;;2.33;;
20159;SDS011;50187;50.492;12.134;2024-02-21T02:52:46;3.37;;;2.53;;
20159;SDS011;50187;50.492;12.134;2024-02-21T02:55:31;3.80;;;2.60;;
20159;SDS011;50187;50.492;12.134;2024-02-21T02:58:17;2.97;;;2.63;;
20159;SDS011;50187;50.492;12.134;2024-02-21T03:01:02;3.00;;;2.40;;
20159;SDS011;50187;50.492;12.134;2024-02-21T03:03:49;3.97;;;2.40;;
20159;SDS011;50187;50.492;12.134;2024-02-21T03:06:34;2.60;;;2.40;;
20159;SDS011;50187;50.492;12.134;2024-02-21T03:09:20;2.87;;;2.50;;
20159;SDS011;50187;50.492;12.134;2024-02-21T03:12:05;3.40;;;2.40;;
20159;SDS011;50187;50.492;12.134;2024-02-21T03:14:51;2.77;;;2.13;;
20159;SDS011;50187;50.492;12.134;2024-02-21T03:17:36;2.30;;;2.07;;
20159;SDS011;50187;50.492;12.134;2024-02-21T03:20:21;3.07;;;2.37;;
20159;SDS011;50187;50.492;12.134;2024-02-21T03:23:07;2.43;;;2.20;;
20159;SDS011;50187;50.492;12.134;2024-02-21T03:25:52;3.83;;;2.17;;
20159;SDS011;50187;50.492;12.134;2024-02-21T03:28:37;2.07;;;1.90;;
20159;SDS011;50187;50.492;12.134;2024-02-21T03:31:24;2.57;;;2.20;;
20159;SDS011;50187;50.492;12.134;2024-02-21T03:34:16;3.30;;;2.30;;
20159;SDS011;50187;50.492;12.134;2024-02-21T03:37:01;2.17;;;1.77;;
20159;SDS011;50187;50.492;12.134;2024-02-21T03:39:47;2.73;;;2.53;;
20159;SDS011;50187;50.492;12.134;2024-02-21T03:42:32;2.97;;;2.23;;
20159;SDS011;50187;50.492;12.134;2024-02-21T03:45:17;2.43;;;2.23;;
20159;SDS011;50187;50.492;12.134;2024-02-21T03:48:02;1.90;;;1.80;;
20159;SDS011;50187;50.492;12.134;2024-02-21T03:50:48;2.93;;;2.03;;
20159;SDS011;50187;50.492;12.134;2024-02-21T03:53:34;2.33;;;2.13;;
20159;SDS011;50187;50.492;12.134;2024-02-21T03:56:19;2.33;;;1.87;;
20159;SDS011;50187;50.492;12.134;2024-02-21T03:59:04;2.30;;;2.10;;
20159;SDS011;50187;50.492;12.134;2024-02-21T04:01:52;2.30;;;2.10;;
20159;SDS011;50187;50.492;12.134;2024-02-21T04:04:42;2.17;;;1.97;;
20159;SDS011;50187;50.492;12.134;2024-02-21T04:07:28;2.67;;;2.20;;
20159;SDS011;50187;50.492;12.134;2024-02-21T04:10:13;2.10;;;1.67;;
20159;SDS011;50187;50.492;12.134;2024-02-21T04:12:59;2.63;;;1.80;;
20159;SDS011;50187;50.492;12.134;2024-02-21T04:15:44;1.83;;;1.73;;
20159;SDS011;50187;50.492;12.134;2024-02-21T04:18:29;1.80;;;1.70;;
20159;SDS011;50187;50.492;12.134;2024-02-21T04:21:14;2.00;;;1.77;;
20159;SDS011;50187;50.492;12.134;2024-02-21T04:24:01;2.40;;;2.20;;
20159;SDS011;50187;50.492;12.134;2024-02-21T04:26:48;2.57;;;1.97;;
20159;SDS011;50187;50.492;12.134;2024-02-21T04:29:34;1.87;;;1.70;;
20159;SDS011;50187;50.492;12.134;2024-02-21T04:32:19;2.27;;;1.83;;
20159;SDS011;50187;50.492;12.134;2024-02-21T04:35:04;2.13;;;2.00;;
20159;SDS011;50187;50.492;12.134;2024-02-21T04:37:50;2.53;;;1.93;;
20159;SDS011;50187;50.492;12.134;2024-02-21T04:40:36;2.23;;;1.73;;
20159;SDS011;50187;50.492;12.134;2024-02-21T04:43:21;2.33;;;2.03;;
20159;SDS011;50187;50.492;12.134;2024-02-21T04:46:06;1.83;;;1.73;;
20159;SDS011;50187;50.492;12.134;2024-02-21T04:48:51;2.30;;;1.73;;
20159;SDS011;50187;50.492;12.134;2024-02-21T04:51:36;2.30;;;1.80;;
20159;SDS011;50187;50.492;12.134;2024-02-21T04:54:22;2.30;;;1.70;;
20159;SDS011;50187;50.492;12.134;2024-02-21T04:57:07;2.47;;;2.07;;
20159;SDS011;50187;50.492;12.134;2024-02-21T04:59:52;2.00;;;1.90;;
20159;SDS011;50187;50.492;12.134;2024-02-21T05:02:37;2.17;;;1.90;;
20159;SDS011;50187;50.492;12.134;2024-02-21T05:05:23;2.27;;;1.60;;
20159;SDS011;50187;50.492;12.134;2024-02-21T05:08:08;1.87;;;1.77;;
20159;SDS011;50187;50.492;12.134;2024-02-21T05:10:55;1.63;;;1.53;;
20159;SDS011;50187;50.492;12.134;2024-02-21T05:13:41;1.70;;;1.60;;
20159;SDS011;50187;50.492;12.134;2024-02-21T05:16:26;1.60;;;1.50;;
20159;SDS011;50187;50.492;12.134;2024-02-21T05:19:11;2.80;;;1.90;;
20159;SDS011;50187;50.492;12.134;2024-02-21T05:21:57;2.13;;;1.60;;
20159;SDS011;50187;50.492;12.134;2024-02-21T05:24:43;1.77;;;1.63;;
20159;SDS011;50187;50.492;12.134;2024-02-21T05:27:28;1.97;;;1.70;;
20159;SDS011;50187;50.492;12.134;2024-02-21T05:30:13;1.77;;;1.57;;
20159;SDS011;50187;50.492;12.134;2024-02-21T05:32:59;2.20;;;1.70;;
20159;SDS011;50187;50.492;12.134;2024-02-21T05:35:49;1.80;;;1.57;;
20159;SDS011;50187;50.492;12.134;2024-02-21T05:38:34;1.63;;;1.53;;
20159;SDS011;50187;50.492;12.134;2024-02-21T05:41:20;2.43;;;1.83;;
20159;SDS011;50187;50.492;12.134;2024-02-21T05:44:05;1.73;;;1.63;;
20159;SDS011;50187;50.492;12.134;2024-02-21T05:46:50;1.90;;;1.40;;
20159;SDS011;50187;50.492;12.134;2024-02-21T05:49:36;2.37;;;1.90;;
20159;SDS011;50187;50.492;12.134;2024-02-21T05:52:22;2.20;;;1.60;;
20159;SDS011;50187;50.492;12.134;2024-02-21T05:55:07;1.57;;;1.47;;
20159;SDS011;50187;50.492;12.134;2024-02-21T05:57:54;1.93;;;1.53;;
20159;SDS011;50187;50.492;12.134;2024-02-21T06:00:40;1.37;;;1.27;;
20159;SDS011;50187;50.492;12.134;2024-02-21T06:03:25;1.70;;;1.57;;
20159;SDS011;50187;50.492;12.134;2024-02-21T06:06:10;2.00;;;1.80;;
20159;SDS011;50187;50.492;12.134;2024-02-21T06:08:56;1.70;;;1.60;;
20159;SDS011;50187;50.492;12.134;2024-02-21T06:11:42;1.80;;;1.47;;
20159;SDS011;50187;50.492;12.134;2024-02-21T06:14:30;2.00;;;1.57;;
20159;SDS011;50187;50.492;12.134;2024-02-21T06:17:16;1.80;;;1.70;;
20159;SDS011;50187;50.492;12.134;2024-02-21T06:20:01;2.10;;;1.40;;
20159;SDS011;50187;50.492;12.134;2024-02-21T06:22:46;1.83;;;1.73;;
20159;SDS011;50187;50.492;12.134;2024-02-21T06:25:32;1.70;;;1.60;;
20159;SDS011;50187;50.492;12.134;2024-02-21T06:28:17;1.23;;;1.13;;
20159;SDS011;50187;50.492;12.134;2024-02-21T06:31:03;2.57;;;1.90;;
20159;SDS011;50187;50.492;12.134;2024-02-21T06:33:48;1.67;;;1.37;;
20159;SDS011;50187;50.492;12.134;2024-02-21T06:36:33;1.90;;;1.80;;
20159;SDS011;50187;50.492;12.134;2024-02-21T06:39:19;1.90;;;1.70;;
20159;SDS011;50187;50.492;12.134;2024-02-21T06:42:04;1.70;;;1.60;;
20159;SDS011;50187;50.492;12.134;2024-02-21T06:44:49;1.53;;;1.43;;
20159;SDS011;50187;50.492;12.134;2024-02-21T06:47:34;1.80;;;1.70;;
20159;SDS011;50187;50.492;12.134;2024-02-21T06:50:20;1.47;;;1.37;;
20159;SDS011;50187;50.492;12.134;2024-02-21T06:53:05;1.50;;;1.40;;
20159;SDS011;50187;50.492;12.134;2024-02-21T06:55:51;2.90;;;1.93;;
20159;SDS011;50187;50.492;12.134;2024-02-21T06:58:36;2.23;;;1.80;;
20159;SDS011;50187;50.492;12.134;2024-02-21T07:01:21;1.57;;;1.37;;
20159;SDS011;50187;50.492;12.134;2024-02-21T07:04:06;1.73;;;1.60;;
20159;SDS011;50187;50.492;12.134;2024-02-21T07:06:52;1.37;;;1.27;;
20159;SDS011;50187;50.492;12.134;2024-02-21T07:09:38;1.47;;;1.30;;
20159;SDS011;50187;50.492;12.134;2024-02-21T07:12:24;2.07;;;1.70;;
20159;SDS011;50187;50.492;12.134;2024-02-21T07:15:09;1.80;;;1.40;;
20159;SDS011;50187;50.492;12.134;2024-02-21T07:17:55;2.13;;;1.50;;
20159;SDS011;50187;50.492;12.134;2024-02-21T07:20:40;2.67;;;1.50;;
20159;SDS011;50187;50.492;12.134;2024-02-21T07:23:26;1.53;;;1.40;;
20159;SDS011;50187;50.492;12.134;2024-02-21T07:26:11;1.30;;;1.20;;
20159;SDS011;50187;50.492;12.134;2024-02-21T07:28:57;1.60;;;1.17;;
20159;SDS011;50187;50.492;12.134;2024-02-21T07:31:43;2.13;;;1.70;;
20159;SDS011;50187;50.492;12.134;2024-02-21T07:34:28;1.80;;;1.70;;
20159;SDS011;50187;50.492;12.134;2024-02-21T07:37:14;2.10;;;1.80;;
20159;SDS011;50187;50.492;12.134;2024-02-21T07:39:59;1.93;;;1.40;;
20159;SDS011;50187;50.492;12.134;2024-02-21T07:42:44;2.00;;;1.47;;
20159;SDS011;50187;50.492;12.134;2024-02-21T07:45:35;1.60;;;1.23;;
20159;SDS011;50187;50.492;12.134;2024-02-21T07:48:21;1.77;;;1.30;;
20159;SDS011;50187;50.492;12.134;2024-02-21T07:51:09;1.20;;;1.10;;
20159;SDS011;50187;50.492;12.134;2024-02-21T07:53:54;1.90;;;1.57;;
20159;SDS011;50187;50.492;12.134;2024-02-21T07:56:40;1.60;;;1.13;;
20159;SDS011;50187;50.492;12.134;2024-02-21T07:59:25;1.70;;;1.10;;
20159;SDS011;50187;50.492;12.134;2024-02-21T08:02:13;1.23;;;1.13;;
20159;SDS011;50187;50.492;12.134;2024-02-21T08:04:59;1.57;;;1.30;;
20159;SDS011;50187;50.492;12.134;2024-02-21T08:07:45;1.43;;;1.33;;
20159;SDS011;50187;50.492;12.134;2024-02-21T08:10:30;1.13;;;1.13;;
20159;SDS011;50187;50.492;12.134;2024-02-21T08:13:16;1.10;;;1.00;;
20159;SDS011;50187;50.492;12.134;2024-02-21T08:16:01;1.53;;;1.37;;
20159;SDS011;50187;50.492;12.134;2024-02-21T08:18:48;1.67;;;1.53;;
20159;SDS011;50187;50.492;12.134;2024-02-21T08:21:33;1.40;;;1.30;;
20159;SDS011;50187;50.492;12.134;2024-02-21T08:24:18;1.30;;;1.20;;
20159;SDS011;50187;50.492;12.134;2024-02-21T08:27:04;1.60;;;1.50;;
20159;SDS011;50187;50.492;12.134;2024-02-21T08:29:49;1.13;;;1.13;;
20159;SDS011;50187;50.492;12.134;2024-02-21T08:32:34;1.60;;;1.37;;
20159;SDS011;50187;50.492;12.134;2024-02-21T08:35:21;1.20;;;1.13;;
20159;SDS011;50187;50.492;12.134;2024-02-21T08:38:07;1.27;;;1.27;;
20159;SDS011;50187;50.492;12.134;2024-02-21T08:40:52;1.57;;;1.10;;
20159;SDS011;50187;50.492;12.134;2024-02-21T08:43:38;2.30;;;1.10;;
20159;SDS011;50187;50.492;12.134;2024-02-21T08:46:23;1.53;;;1.37;;
20159;SDS011;50187;50.492;12.134;2024-02-21T08:49:10;1.30;;;1.20;;
20159;SDS011;50187;50.492;12.134;2024-02-21T08:51:55;1.10;;;1.00;;
20159;SDS011;50187;50.492;12.134;2024-02-21T08:54:40;1.40;;;1.30;;
20159;SDS011;50187;50.492;12.134;2024-02-21T08:57:26;1.20;;;1.10;;
20159;SDS011;50187;50.492;12.134;2024-02-21T09:00:12;1.30;;;1.17;;
20159;SDS011;50187;50.492;12.134;2024-02-21T09:02:58;2.33;;;1.30;;
20159;SDS011;50187;50.492;12.134;2024-02-21T09:05:43;1.30;;;1.20;;
20159;SDS011;50187;50.492;12.134;2024-02-21T09:08:29;1.70;;;1.60;;
20159;SDS011;50187;50.492;12.134;2024-02-21T09:11:14;1.10;;;1.00;;
20159;SDS011;50187;50.492;12.134;2024-02-21T09:14:00;1.10;;;1.00;;
20159;SDS011;50187;50.492;12.134;2024-02-21T09:16:45;1.30;;;1.20;;
20159;SDS011;50187;50.492;12.134;2024-02-21T09:19:31;1.50;;;1.40;;
20159;SDS011;50187;50.492;12.134;2024-02-21T09:22:16;1.47;;;1.37;;
20159;SDS011;50187;50.492;12.134;2024-02-21T09:25:02;1.13;;;1.03;;
20159;SDS011;50187;50.492;12.134;2024-02-21T09:27:48;1.40;;;1.30;;
20159;SDS011;50187;50.492;12.134;2024-02-21T09:30:34;1.03;;;1.03;;
20159;SDS011;50187;50.492;12.134;2024-02-21T09:33:19;1.40;;;1.30;;
20159;SDS011;50187;50.492;12.134;2024-02-21T09:36:16;1.07;;;1.03;;
20159;SDS011;50187;50.492;12.134;2024-02-21T09:39:02;1.30;;;1.20;;
20159;SDS011;50187;50.492;12.134;2024-02-21T09:41:50;1.30;;;1.20;;
20159;SDS011;50187;50.492;12.134;2024-02-21T09:44:41;1.43;;;1.33;;
20159;SDS011;50187;50.492;12.134;2024-02-21T09:47:34;1.30;;;1.20;;
20159;SDS011;50187;50.492;12.134;2024-02-21T09:50:43;1.10;;;1.03;;
20159;SDS011;50187;50.492;12.134;2024-02-21T09:53:28;1.87;;;1.33;;
20159;SDS011;50187;50.492;12.134;2024-02-21T09:56:15;1.40;;;1.30;;
20159;SDS011;50187;50.492;12.134;2024-02-21T09:59:01;1.17;;;1.17;;
20159;SDS011;50187;50.492;12.134;2024-02-21T10:01:50;1.50;;;1.40;;
20159;SDS011;50187;50.492;12.134;2024-02-21T10:04:36;1.00;;;0.90;;
20159;SDS011;50187;50.492;12.134;2024-02-21T10:07:22;1.30;;;1.20;;
20159;SDS011;50187;50.492;12.134;2024-02-21T10:10:09;1.50;;;1.40;;
20159;SDS011;50187;50.492;12.134;2024-02-21T10:12:55;1.70;;;1.40;;
20159;SDS011;50187;50.492;12.134;2024-02-21T10:15:40;1.00;;;1.00;;
20159;SDS011;50187;50.492;12.134;2024-02-21T10:18:26;1.00;;;1.00;;
20159;SDS011;50187;50.492;12.134;2024-02-21T10:21:11;1.20;;;1.10;;
20159;SDS011;50187;50.492;12.134;2024-02-21T10:23:57;1.27;;;1.17;;
20159;SDS011;50187;50.492;12.134;2024-02-21T10:26:42;1.20;;;1.20;;
20159;SDS011;50187;50.492;12.134;2024-02-21T10:29:28;1.30;;;1.20;;
20159;SDS011;50187;50.492;12.134;2024-02-21T10:32:17;1.77;;;1.43;;
20159;SDS011;50187;50.492;12.134;2024-02-21T10:35:03;1.20;;;1.10;;
20159;SDS011;50187;50.492;12.134;2024-02-21T10:37:50;1.33;;;1.23;;
20159;SDS011;50187;50.492;12.134;2024-02-21T10:40:40;1.50;;;1.40;;
20159;SDS011;50187;50.492;12.134;2024-02-21T10:43:26;0.90;;;0.90;;
20159;SDS011;50187;50.492;12.134;2024-02-21T10:46:12;1.27;;;1.17;;
20159;SDS011;50187;50.492;12.134;2024-02-21T10:49:01;1.60;;;1.40;;
20159;SDS011;50187;50.492;12.134;2024-02-21T10:52:01;0.93;;;0.93;;
20159;SDS011;50187;50.492;12.134;2024-02-21T10:55:01;1.40;;;1.30;;
20159;SDS011;50187;50.492;12.134;2024-02-21T10:57:49;1.50;;;1.40;;
20159;SDS011;50187;50.492;12.134;2024-02-21T11:00:35;1.43;;;1.17;;
20159;SDS011;50187;50.492;12.134;2024-02-21T11:03:22;1.53;;;1.27;;
20159;SDS011;50187;50.492;12.134;2024-02-21T11:06:07;1.50;;;1.13;;
20159;SDS011;50187;50.492;12.134;2024-02-21T11:09:02;1.33;;;1.10;;
20159;SDS011;50187;50.492;12.134;2024-02-21T11:11:52;1.17;;;1.07;;
20159;SDS011;50187;50.492;12.134;2024-02-21T11:14:38;1.00;;;1.00;;
20159;SDS011;50187;50.492;12.134;2024-02-21T11:17:24;1.33;;;1.13;;
20159;SDS011;50187;50.492;12.134;2024-02-21T11:20:12;0.87;;;0.80;;
20159;SDS011;50187;50.492;12.134;2024-02-21T11:22:58;1.20;;;1.20;;
20159;SDS011;50187;50.492;12.134;2024-02-21T11:25:44;1.33;;;1.20;;
20159;SDS011;50187;50.492;12.134;2024-02-21T11:28:29;2.43;;;1.27;;
20159;SDS011;50187;50.492;12.134;2024-02-21T11:31:14;1.03;;;1.03;;
20159;SDS011;50187;50.492;12.134;2024-02-21T11:34:00;1.23;;;1.13;;
20159;SDS011;50187;50.492;12.134;2024-02-21T11:36:49;1.47;;;1.20;;
20159;SDS011;50187;50.492;12.134;2024-02-21T11:39:36;1.33;;;1.23;;
20159;SDS011;50187;50.492;12.134;2024-02-21T11:42:21;1.13;;;1.03;;
20159;SDS011;50187;50.492;12.134;2024-02-21T11:45:07;1.50;;;1.40;;
20159;SDS011;50187;50.492;12.134;2024-02-21T11:47:56;2.70;;;1.43;;
20159;SDS011;50187;50.492;12.134;2024-02-21T11:50:41;1.43;;;1.30;;
20159;SDS011;50187;50.492;12.134;2024-02-21T11:53:27;1.33;;;1.13;;
20159;SDS011;50187;50.492;12.134;2024-02-21T11:56:18;1.27;;;1.17;;
20159;SDS011;50187;50.492;12.134;2024-02-21T11:59:04;1.43;;;1.20;;
20159;SDS011;50187;50.492;12.134;2024-02-21T12:01:52;1.10;;;1.00;;
20159;SDS011;50187;50.492;12.134;2024-02-21T12:04:38;1.00;;;1.00;;
20159;SDS011;50187;50.492;12.134;2024-02-21T12:07:23;1.30;;;1.20;;
20159;SDS011;50187;50.492;12.134;2024-02-21T12:10:10;1.33;;;1.17;;
20159;SDS011;50187;50.492;12.134;2024-02-21T12:13:05;1.30;;;1.20;;
20159;SDS011;50187;50.492;12.134;2024-02-21T12:15:52;1.50;;;1.40;;
20159;SDS011;50187;50.492;12.134;2024-02-21T12:18:38;1.30;;;1.20;;
20159;SDS011;50187;50.492;12.134;2024-02-21T12:21:24;1.17;;;1.07;;
20159;SDS011;50187;50.492;12.134;2024-02-21T12:24:14;0.90;;;0.90;;
20159;SDS011;50187;50.492;12.134;2024-02-21T12:27:06;1.33;;;1.20;;
20159;SDS011;50187;50.492;12.134;2024-02-21T12:29:51;1.30;;;1.13;;
20159;SDS011;50187;50.492;12.134;2024-02-21T12:32:37;1.50;;;1.33;;
20159;SDS011;50187;50.492;12.134;2024-02-21T12:35:22;1.10;;;0.90;;
20159;SDS011;50187;50.492;12.134;2024-02-21T12:38:08;0.97;;;0.97;;
20159;SDS011;50187;50.492;12.134;2024-02-21T12:40:53;0.90;;;0.90;;
20159;SDS011;50187;50.492;12.134;2024-02-21T12:43:38;1.40;;;1.30;;
20159;SDS011;50187;50.492;12.134;2024-02-21T12:46:24;0.97;;;0.90;;
20159;SDS011;50187;50.492;12.134;2024-02-21T12:49:10;1.70;;;1.10;;
20159;SDS011;50187;50.492;12.134;2024-02-21T12:51:55;1.37;;;1.27;;
20159;SDS011;50187;50.492;12.134;2024-02-21T12:54:40;2.53;;;1.37;;
20159;SDS011;50187;50.492;12.134;2024-02-21T12:57:27;1.07;;;1.00;;
20159;SDS011;50187;50.492;12.134;2024-02-21T13:00:12;1.23;;;1.13;;
20159;SDS011;50187;50.492;12.134;2024-02-21T13:02:59;1.33;;;1.13;;
20159;SDS011;50187;50.492;12.134;2024-02-21T13:05:44;1.03;;;1.03;;
20159;SDS011;50187;50.492;12.134;2024-02-21T13:08:29;1.10;;;1.00;;
20159;SDS011;50187;50.492;12.134;2024-02-21T13:11:15;0.97;;;0.90;;
20159;SDS011;50187;50.492;12.134;2024-02-21T13:14:00;1.27;;;1.17;;
20159;SDS011;50187;50.492;12.134;2024-02-21T13:16:45;1.47;;;1.30;;
20159;SDS011;50187;50.492;12.134;2024-02-21T13:19:31;1.00;;;0.97;;
20159;SDS011;50187;50.492;12.134;2024-02-21T13:22:16;1.10;;;1.00;;
20159;SDS011;50187;50.492;12.134;2024-02-21T13:25:02;1.30;;;1.20;;
20159;SDS011;50187;50.492;12.134;2024-02-21T13:27:48;2.27;;;1.20;;
20159;SDS011;50187;50.492;12.134;2024-02-21T13:30:34;1.73;;;1.30;;
20159;SDS011;50187;50.492;12.134;2024-02-21T13:33:19;1.23;;;1.13;;
20159;SDS011;50187;50.492;12.134;2024-02-21T13:36:05;1.43;;;1.10;;
20159;SDS011;50187;50.492;12.134;2024-02-21T13:38:50;1.10;;;1.10;;
20159;SDS011;50187;50.492;12.134;2024-02-21T13:41:36;1.53;;;1.00;;
20159;SDS011;50187;50.492;12.134;2024-02-21T13:44:21;1.33;;;1.10;;
20159;SDS011;50187;50.492;12.134;2024-02-21T13:47:06;1.30;;;1.20;;
20159;SDS011;50187;50.492;12.134;2024-02-21T13:49:53;1.17;;;1.00;;
20159;SDS011;50187;50.492;12.134;2024-02-21T13:52:38;1.20;;;1.13;;
20159;SDS011;50187;50.492;12.134;2024-02-21T13:55:24;1.00;;;0.97;;
20159;SDS011;50187;50.492;12.134;2024-02-21T13:58:12;1.10;;;1.00;;
20159;SDS011;50187;50.492;12.134;2024-02-21T14:00:58;0.90;;;0.90;;
20159;SDS011;50187;50.492;12.134;2024-02-21T14:03:43;1.10;;;1.00;;
20159;SDS011;50187;50.492;12.134;2024-02-21T14:06:29;1.30;;;1.20;;
20159;SDS011;50187;50.492;12.134;2024-02-21T14:09:14;1.40;;;1.00;;
20159;SDS011;50187;50.492;12.134;2024-02-21T14:12:00;1.40;;;1.30;;
20159;SDS011;50187;50.492;12.134;2024-02-21T14:14:45;0.87;;;0.80;;
20159;SDS011;50187;50.492;12.134;2024-02-21T14:17:31;0.90;;;0.90;;
20159;SDS011;50187;50.492;12.134;2024-02-21T14:20:16;1.40;;;1.10;;
20159;SDS011;50187;50.492;12.134;2024-02-21T14:23:02;1.60;;;1.10;;
20159;SDS011;50187;50.492;12.134;2024-02-21T14:25:47;1.27;;;1.17;;
20159;SDS011;50187;50.492;12.134;2024-02-21T14:28:33;1.20;;;1.10;;
20159;SDS011;50187;50.492;12.134;2024-02-21T14:31:21;1.00;;;1.00;;
20159;SDS011;50187;50.492;12.134;2024-02-21T14:34:06;1.23;;;1.13;;
20159;SDS011;50187;50.492;12.134;2024-02-21T14:36:53;1.80;;;1.40;;
20159;SDS011;50187;50.492;12.134;2024-02-21T14:39:38;1.63;;;1.03;;
20159;SDS011;50187;50.492;12.134;2024-02-21T14:42:25;1.03;;;1.03;;
20159;SDS011;50187;50.492;12.134;2024-02-21T14:45:10;5.37;;;1.20;;
20159;SDS011;50187;50.492;12.134;2024-02-21T14:47:56;1.40;;;1.27;;
20159;SDS011;50187;50.492;12.134;2024-02-21T14:50:41;1.93;;;1.30;;
20159;SDS011;50187;50.492;12.134;2024-02-21T14:53:29;1.47;;;1.37;;
20159;SDS011;50187;50.492;12.134;2024-02-21T14:56:16;1.30;;;1.20;;
20159;SDS011;50187;50.492;12.134;2024-02-21T14:59:02;1.57;;;1.40;;
20159;SDS011;50187;50.492;12.134;2024-02-21T15:01:59;1.20;;;0.93;;
20159;SDS011;50187;50.492;12.134;2024-02-21T15:04:44;2.27;;;1.30;;
20159;SDS011;50187;50.492;12.134;2024-02-21T15:07:30;1.93;;;1.10;;
20159;SDS011;50187;50.492;12.134;2024-02-21T15:10:16;1.87;;;1.60;;
20159;SDS011;50187;50.492;12.134;2024-02-21T15:13:04;1.87;;;1.17;;
20159;SDS011;50187;50.492;12.134;2024-02-21T15:15:51;2.70;;;1.50;;
20159;SDS011;50187;50.492;12.134;2024-02-21T15:18:36;1.97;;;1.37;;
20159;SDS011;50187;50.492;12.134;2024-02-21T15:21:23;1.23;;;1.07;;
20159;SDS011;50187;50.492;12.134;2024-02-21T15:24:08;1.23;;;1.13;;
20159;SDS011;50187;50.492;12.134;2024-02-21T15:26:54;1.47;;;1.10;;
20159;SDS011;50187;50.492;12.134;2024-02-21T15:29:39;1.37;;;1.20;;
20159;SDS011;50187;50.492;12.134;2024-02-21T15:32:24;1.60;;;1.20;;
20159;SDS011;50187;50.492;12.134;2024-02-21T15:35:10;1.47;;;1.37;;
20159;SDS011;50187;50.492;12.134;2024-02-21T15:37:55;1.70;;;1.20;;
20159;SDS011;50187;50.492;12.134;2024-02-21T15:40:42;1.70;;;1.30;;
20159;SDS011;50187;50.492;12.134;2024-02-21T15:43:27;1.50;;;1.40;;
20159;SDS011;50187;50.492;12.134;2024-02-21T15:46:13;1.33;;;1.23;;
20159;SDS011;50187;50.492;12.134;2024-02-21T15:48:58;1.37;;;1.27;;
20159;SDS011;50187;50.492;12.134;2024-02-21T15:51:44;1.30;;;1.20;;
20159;SDS011;50187;50.492;12.134;2024-02-21T15:54:29;2.10;;;1.50;;
20159;SDS011;50187;50.492;12.134;2024-02-21T15:57:14;1.57;;;1.13;;
20159;SDS011;50187;50.492;12.134;2024-02-21T16:00:00;1.53;;;1.03;;
20159;SDS011;50187;50.492;12.134;2024-02-21T16:02:45;1.10;;;1.00;;
20159;SDS011;50187;50.492;12.134;2024-02-21T16:05:31;1.10;;;1.10;;
20159;SDS011;50187;50.492;12.134;2024-02-21T16:08:16;1.30;;;1.20;;
20159;SDS011;50187;50.492;12.134;2024-02-21T16:11:04;1.97;;;1.07;;
20159;SDS011;50187;50.492;12.134;2024-02-21T16:13:49;2.17;;;1.27;;
20159;SDS011;50187;50.492;12.134;2024-02-21T16:16:36;1.37;;;1.20;;
20159;SDS011;50187;50.492;12.134;2024-02-21T16:19:25;1.20;;;1.10;;
20159;SDS011;50187;50.492;12.134;2024-02-21T16:22:10;1.60;;;1.50;;
20159;SDS011;50187;50.492;12.134;2024-02-21T16:24:55;2.43;;;1.30;;